CheckWX is a tool to help pilots better visualize weather data.  It is not intended as a substitute for an official pre-flight weather briefing.

09:56:47 UTC

21D METAR
Lake Elmo Airport
St Paul, Minnesota, USA
Current

22 mins ago

K21D 260935Z AUTO 32009G15KT 10SM 07/M01 A2995 RMK AO2
Observed
Apr-26 @ 09:35 UTC
Wind
  • 320° at 9 KTS
  • Gusting to 15 KTS
Visibility
10 SM
Temperature
C / 45°F
Dewpoint
-1°C / 30°F
Humidity
57%
Altimeter
29.95" Hg
Pressure
1014.22 hPa
Previous

41 mins ago

K21D 260916Z AUTO 31009G16KT 10SM 07/M01 A2994 RMK AO2
Observed
Apr-26 @ 09:16 UTC
Wind
  • 310° at 9 KTS
  • Gusting to 16 KTS
Visibility
10 SM
Temperature
C / 45°F
Dewpoint
-1°C / 30°F
Humidity
57%
Altimeter
29.94" Hg
Pressure
1013.92 hPa
Previous

1 hour ago

K21D 260856Z AUTO 31010G16KT 10SM 08/M02 A2993 RMK AO2
Observed
Apr-26 @ 08:56 UTC
Wind
  • 310° at 10 KTS
  • Gusting to 16 KTS
Visibility
10 SM
Temperature
C / 46°F
Dewpoint
-2°C / 28°F
Humidity
50%
Altimeter
29.93" Hg
Pressure
1013.52 hPa